This is the latest recevied weather packets stored in our database for station/object OK4PZ-5. If no packets are shown the sender has not sent any weather packets the latest 10 day(s).
| Time | Temp. | Humidity | Pressure | Rain* | Wind** | Luminosity | Snow |
|---|---|---|---|---|---|---|---|
| 1777190403 | 8.33° C | 57% | 1025 hPa | 0 mm | - | - | - |
| 1777189502 | 8.33° C | 56% | 1024 hPa | 0 mm | - | - | - |
| 1777188602 | 8.33° C | 57% | 1024 hPa | 0 mm | - | - | - |
| 1777187703 | 7.78° C | 59% | 1024 hPa | 0 mm | - | - | - |
| 1777186803 | 7.78° C | 59% | 1024 hPa | 0 mm | - | - | - |
| 1777185903 | 7.78° C | 61% | 1024 hPa | 0 mm | - | - | - |
| 1777185002 | 7.22° C | 63% | 1023 hPa | 0 mm | - | - | - |
| 1777184102 | 6.67° C | 66% | 1023 hPa | 0 mm | - | - | - |
| 1777183202 | 6.67° C | 69% | 1023 hPa | 0 mm | - | - | - |
| 1777182303 | 6.11° C | 70% | 1023 hPa | 0 mm | - | - | - |
| 1777181403 | 6.67° C | 72% | 1023 hPa | 0 mm | - | - | - |
| 1777180502 | 6.11° C | 73% | 1022 hPa | 0 mm | - | - | - |
| 1777179602 | 7.22° C | 73% | 1022 hPa | 0 mm | - | - | - |
| 1777178702 | 7.22° C | 72% | 1021 hPa | 0 mm | - | - | - |
| 1777177803 | 6.67° C | 72% | 1021 hPa | 0 mm | - | - | - |
| 1777176903 | 6.67° C | 66% | 1020 hPa | 0 mm | - | - | - |
| 1777176003 | 6.67° C | 62% | 1020 hPa | 0 mm | - | - | - |
| 1777175102 | 5.56° C | 65% | 1020 hPa | 0 mm | - | - | - |
| 1777174202 | 3.89° C | 71% | 1019 hPa | 0 mm | - | - | - |
| 1777173302 | 3.33° C | 72% | 1019 hPa | 0 mm | - | - | - |
| 1777172403 | 3.33° C | 75% | 1019 hPa | 0 mm | - | - | - |
| 1777171502 | 4.44° C | 70% | 1019 hPa | 0 mm | - | - | - |
| 1777170603 | 3.89° C | 72% | 1019 hPa | 0 mm | - | - | - |
| 1777169703 | 3.89° C | 74% | 1018 hPa | 0 mm | - | - | - |
| 1777168802 | 3.89° C | 72% | 1018 hPa | 0 mm | - | - | - |
* Rain latest hour (hover to see other rain measurements)
** Current wind speed in m/s (hover to see current wind gust speed)